Aérodrome :
LOGIN :

S'inscrire | Disclaimer

   EN    FR    IT 

 










Légende :    VFR   VFR Marginal   IFR   IFR Intensif   IFR Très Intensif
Visi : 
Plafond : 
>= 8 km
>= 3000ft
5 à 8 km
1000 à 3000 ft
1500m à 5 km
500 à 1000 ft
800 à 1500m
200 à 500 ft
< 800m
< 200 ft
Symboles :   Orages  Brouillard  Fortes neiges  Fortes précipitations  Vent > 20 kt
SIGMETs :   Divers  Orages  Givrage  Turbulence  Onde Orograph.  Cendres Volcan.







- Altitude de l'aérodrome : 156 ft
- Code IATA : MLN


GEML - Melilla

DERNIER METAR :
  • 201330Z 03009KT 340V080 9999 FEW030 17/11 Q1011

METARs EXPIRÉS :
  • 201300Z 02011KT 340V050 9999 FEW030 18/10 Q1011
  • 201230Z 02009KT 340V050 9999 FEW030 17/11 Q1011
  • 201200Z 05007KT 010V090 9999 FEW030 19/10 Q1011
  • 201130Z 04007KT 360V100 9999 FEW030 19/09 Q1011
  • 201100Z 03007KT 340V090 9999 FEW025 19/08 Q1011

TAF TAF GEML
Valide du 20 à 09h jusqu'au 21 à 09h UTC


200800Z 2009/2109 05005KT 9999 FEW012 TX20/2012Z TN12/2106Z
PROB30
TEMPO 2102/2109 3000 BR BKN010
Pas de NOTAMs connus pour ce terrain.
1 SIGMET publié pour la FIR Casablanca (GMMM) :
 
Orages noyés dans la masse
GMMM SIGMET 02 VALID 201217/201617 GMMC
GMMM CASABLANCA FIR EMBD TS OBS WI N3410 W00547 - N3248 W00734 - N32 48 W00635 - N3403 W00416 - N3410 W00547 TOP FL270 MOV NE NC=



MET'MAP, la Météo Aéronautique d'un coup d'oeil ! - Copyright ORBIFLY Décembre 2007 - Disclaimer

ORBIFLY MET'MAP TEAM :

Programmation & Développement : Alexandra Zaïnal
Conception & Développement : Baudouin d'Aumeries
Co-Programmation & Développement : Marc-Olivier Méhu
Soutien technique & logistique : Manuel Goepfert

Contact : metmap@orbifly.com




SOURCES & CREDITS :

   NOAA